Nearby METAR Reports

 

YAMB - Amberley, Australia
Distance from station: NW 41km
Updated: 29/10/2021 00:00
Light rain, Showers, Clear
Light rain, Showers, Clear
 Wind from SW
Wind: SW 11 km/h
Temperature: 22°C
Dew Point: 19°C
Humidity: 83%
Barometer: 1012 hPa
Summary: Light rain, Showers
Clouds: Clear
Visibility: 10 km
2021/10/28 14:00 YAMB 281400Z AUTO 23006KT 9999 -SHRA NCD 22/19 Q1012
YBBN - Brisbane Intl Ar, Australia
Distance from station: N 55km
Updated: 29/10/2021 00:00
Light rain, Mostly cloudy
Light rain, Mostly cloudy
 Wind from NNW
Wind: NNW 17 km/h
Temperature: 24°C
Dew Point: 21°C
Humidity: 83%
Barometer: 1012 hPa
Summary: Light Rain
Clouds: Mostly Cloudy
Visibility: 10 km
Cloud details: Few Clouds 1463 m
Partly Cloudy 3658 m
Mostly Cloudy 4420 m
2021/10/28 14:00 YBBN 281400Z 33009KT 9999 -RA FEW048 SCT120 BKN145 24/21 Q1012
 
YBCG - Coolangatta Aws, Australia
Distance from station: SE 57km
Updated: 29/10/2021 00:00
Clear
Clear
 Wind from N
Wind: N 17 km/h
Temperature: 23°C
Dew Point: 21°C
Humidity: 89%
Barometer: 1011 hPa
Clouds: Clear
Visibility: 10 km
2021/10/28 14:00 YBCG 281400Z AUTO 01009KT 9999 // NCD 23/21 Q1011
YLIS - Lismore Arpt, Australia
Distance from station: SSE 110km
Updated: 29/10/2021 00:00
Partly Cloudy
Partly Cloudy
 Wind from N
Wind: N 15 km/h
Temperature: 21°C
Dew Point: 20°C
Humidity: 94%
Barometer: 1011 hPa
Clouds: Partly Cloudy
Visibility: 10 km
Cloud details: Partly Cloudy 3018 m
2021/10/28 14:00 YLIS 281400Z AUTO 35008KT 9999 // SCT099 21/20 Q1011
 
YCAS - Casino Airport, Australia
Distance from station: S 113km
Updated: 29/10/2021 00:00

 Wind from calm
Wind: Calm
Temperature: 21°C
Dew Point: 19°C
Humidity: 88%
Barometer: 1011 hPa
2021/10/28 14:00 YCAS 281400Z AUTO 00000KT //// // ////// 21/19 Q1011
YBNA - Ballina Byron G., Australia
Distance from station: SSE 119km
Updated: 29/10/2021 00:00
Clear
Clear
 Wind from NNE
Wind: NNE 26 km/h
Temperature: 23°C
Dew Point: 21°C
Humidity: 89%
Barometer: 1011 hPa
Clouds: Clear
Visibility: 10 km
2021/10/28 14:00 YBNA 281400Z AUTO 02014KT 9999 // NCD 23/21 Q1011
 
YBOK - Oakey (army/Civ), Australia
Distance from station: WNW 139km
Updated: 29/10/2021 00:00
Mostly Cloudy
Mostly Cloudy
 Wind from NE
Wind: NE 17 km/h
Temperature: 20°C
Dew Point: 19°C
Humidity: 94%
Barometer: 1014 hPa
Clouds: Mostly Cloudy
Visibility: 10 km
Cloud details: Partly Cloudy 2286 m
Mostly Cloudy 3658 m
2021/10/28 14:00 YBOK 281400Z AUTO 05009KT 9999 // SCT075 BKN120 20/19 Q1014